createdAt,value
2017-12-26T00:00:55.195Z,1000.04
2017-12-26T00:02:03.796Z,1000.06
2017-12-26T00:03:12.405Z,1000.12
2017-12-26T00:04:21.005Z,1000.12
2017-12-26T00:05:29.593Z,1000.07
2017-12-26T00:06:38.211Z,1000.12
2017-12-26T00:07:46.815Z,1000.15
2017-12-26T00:08:55.409Z,1000.12
2017-12-26T00:10:04.016Z,1000.14
2017-12-26T00:11:12.882Z,1000.07
2017-12-26T00:12:21.475Z,1000.05
2017-12-26T00:13:30.078Z,999.99
2017-12-26T00:14:38.693Z,1000.04
2017-12-26T00:15:47.286Z,1000.04
2017-12-26T00:16:55.893Z,999.99
2017-12-26T00:18:04.502Z,999.92
2017-12-26T00:19:13.097Z,999.9
2017-12-26T00:20:21.690Z,999.89
2017-12-26T00:21:30.304Z,999.86
2017-12-26T00:22:38.905Z,999.76
2017-12-26T00:23:47.495Z,999.77
2017-12-26T00:24:56.107Z,999.67
2017-12-26T00:26:04.973Z,999.7
2017-12-26T00:27:13.562Z,999.63
2017-12-26T00:28:22.171Z,999.61
2017-12-26T00:29:30.782Z,999.6
2017-12-26T00:30:39.385Z,999.57
2017-12-26T00:31:48.241Z,999.58
2017-12-26T00:32:56.836Z,999.6
2017-12-26T00:34:05.710Z,999.62
2017-12-26T00:35:14.313Z,999.54
2017-12-26T00:36:22.902Z,999.56
2017-12-26T00:37:31.508Z,999.51
2017-12-26T00:38:40.119Z,999.5
2017-12-26T00:39:48.712Z,999.45
2017-12-26T00:40:57.315Z,999.41
2017-12-26T00:42:05.931Z,999.36
2017-12-26T00:43:14.519Z,999.32
2017-12-26T00:44:23.117Z,999.25
2017-12-26T00:45:31.717Z,999.24
2017-12-26T00:46:40.323Z,999.26
2017-12-26T00:47:48.927Z,999.32
2017-12-26T00:48:57.518Z,999.23
2017-12-26T00:50:06.121Z,999.19
2017-12-26T00:51:14.736Z,999.18
2017-12-26T00:52:23.326Z,999.15
2017-12-26T00:53:31.924Z,999.13
2017-12-26T00:54:40.538Z,999.11
2017-12-26T00:55:49.131Z,999.01
2017-12-26T00:56:57.728Z,998.92
2017-12-26T00:58:06.342Z,998.85
2017-12-26T00:59:14.940Z,998.87
2017-12-26T01:00:23.545Z,998.82
2017-12-26T01:01:32.139Z,998.83
2017-12-26T01:02:40.737Z,998.77
2017-12-26T01:03:49.353Z,998.75
2017-12-26T01:04:57.947Z,998.73
2017-12-26T01:06:06.544Z,998.73
2017-12-26T01:07:15.417Z,998.74
2017-12-26T01:08:24.015Z,998.75
2017-12-26T01:09:32.608Z,998.81
2017-12-26T01:10:41.220Z,998.71
2017-12-26T01:11:49.822Z,998.64
2017-12-26T01:12:58.407Z,998.63
2017-12-26T01:14:07.284Z,998.58
2017-12-26T01:15:15.893Z,998.59
2017-12-26T01:16:24.482Z,998.54
2017-12-26T01:17:33.080Z,998.55
2017-12-26T01:18:41.693Z,998.55
2017-12-26T01:19:50.282Z,998.57
2017-12-26T01:20:58.882Z,998.46
2017-12-26T01:22:07.491Z,998.52
2017-12-26T01:23:16.090Z,998.46
2017-12-26T01:24:24.686Z,998.48
2017-12-26T01:25:33.298Z,998.43
2017-12-26T01:26:41.895Z,998.38
2017-12-26T01:27:50.741Z,998.4
2017-12-26T01:28:59.349Z,998.42
2017-12-26T01:30:07.946Z,998.39
2017-12-26T01:31:16.553Z,998.37
2017-12-26T01:32:25.146Z,998.37
2017-12-26T01:33:33.740Z,998.37
2017-12-26T01:34:42.354Z,998.32
2017-12-26T01:35:50.955Z,998.27
2017-12-26T01:36:59.547Z,998.24
2017-12-26T01:38:08.155Z,998.2
2017-12-26T01:39:16.756Z,998.18
2017-12-26T01:40:25.345Z,998.22
2017-12-26T01:41:33.953Z,998.18
2017-12-26T01:42:42.565Z,998.16
2017-12-26T01:43:51.159Z,998.12
2017-12-26T01:44:59.755Z,998.12
2017-12-26T01:46:08.350Z,998.1
2017-12-26T01:47:17.481Z,998.04
2017-12-26T01:48:26.084Z,998.07
2017-12-26T01:49:34.672Z,998.05
2017-12-26T01:50:43.280Z,998.08
2017-12-26T01:51:51.886Z,998.01
2017-12-26T01:53:00.480Z,997.97
2017-12-26T01:54:09.084Z,997.94
2017-12-26T01:55:17.754Z,997.96
2017-12-26T01:56:26.282Z,997.95
2017-12-26T01:57:34.881Z,997.92
2017-12-26T01:58:43.479Z,997.91
2017-12-26T01:59:52.345Z,997.88
2017-12-26T02:01:00.948Z,997.81
2017-12-26T02:02:09.543Z,997.79
2017-12-26T02:03:18.141Z,997.8
2017-12-26T02:04:26.755Z,997.74
2017-12-26T02:05:35.341Z,997.7
2017-12-26T02:06:43.944Z,997.71
2017-12-26T02:07:52.553Z,997.64
2017-12-26T02:09:01.146Z,997.64
2017-12-26T02:10:09.740Z,997.66
2017-12-26T02:11:18.352Z,997.66
2017-12-26T02:12:26.949Z,997.6
2017-12-26T02:13:35.540Z,997.62
2017-12-26T02:14:44.146Z,997.52
2017-12-26T02:15:52.747Z,997.48
2017-12-26T02:17:01.335Z,997.5
2017-12-26T02:18:09.944Z,997.42
2017-12-26T02:19:18.552Z,997.45
2017-12-26T02:20:27.400Z,997.39
2017-12-26T02:21:36.004Z,997.39
2017-12-26T02:22:44.610Z,997.38
2017-12-26T02:23:53.201Z,997.35
2017-12-26T02:25:01.798Z,997.29
2017-12-26T02:26:10.409Z,997.18
2017-12-26T02:27:19.258Z,997.13
2017-12-26T02:28:27.862Z,997.13
2017-12-26T02:29:36.455Z,997.13
2017-12-26T02:30:45.055Z,997.07
2017-12-26T02:31:53.929Z,997.04
2017-12-26T02:33:02.793Z,997.01
2017-12-26T02:34:11.393Z,996.99
2017-12-26T02:35:20.262Z,996.97
2017-12-26T02:36:28.857Z,996.94
2017-12-26T02:37:37.450Z,996.87
2017-12-26T02:38:46.064Z,996.84
2017-12-26T02:39:54.660Z,996.79
2017-12-26T02:41:03.249Z,996.77
2017-12-26T02:42:11.861Z,996.7
2017-12-26T02:43:20.462Z,996.71
2017-12-26T02:44:29.070Z,996.66
2017-12-26T02:45:37.661Z,996.55
2017-12-26T02:46:46.510Z,996.56
2017-12-26T02:47:55.121Z,996.5
2017-12-26T02:49:03.726Z,996.51
2017-12-26T02:50:12.569Z,996.44
2017-12-26T02:51:21.182Z,996.34
2017-12-26T02:52:29.783Z,996.35
2017-12-26T02:53:38.373Z,996.35
2017-12-26T02:54:46.976Z,996.25
2017-12-26T02:55:55.583Z,996.24
2017-12-26T02:57:04.180Z,996.22
2017-12-26T02:58:12.778Z,996.16
2017-12-26T02:59:21.628Z,996.13
2017-12-26T03:00:30.495Z,996.13
2017-12-26T03:01:39.098Z,996.05
2017-12-26T03:02:47.684Z,996.06
2017-12-26T03:03:56.290Z,996.02
2017-12-26T03:05:04.897Z,995.95
2017-12-26T03:06:14.004Z,995.92
2017-12-26T03:07:22.605Z,995.9
2017-12-26T03:08:31.220Z,995.87
2017-12-26T03:09:39.810Z,995.85
2017-12-26T03:10:48.407Z,995.8
2017-12-26T03:11:57.003Z,995.74
2017-12-26T03:13:05.609Z,995.72
2017-12-26T03:14:14.215Z,995.73
2017-12-26T03:15:22.802Z,995.69
2017-12-26T03:16:31.404Z,995.72
2017-12-26T03:17:40.022Z,995.68
2017-12-26T03:18:48.611Z,995.64
2017-12-26T03:19:57.209Z,995.62
2017-12-26T03:21:05.822Z,995.57
2017-12-26T03:22:14.413Z,995.57
2017-12-26T03:23:23.008Z,995.54
2017-12-26T03:24:31.615Z,995.5
2017-12-26T03:25:40.216Z,995.46
2017-12-26T03:26:48.820Z,995.45
2017-12-26T03:27:57.409Z,995.45
2017-12-26T03:29:06.006Z,995.41
2017-12-26T03:30:14.619Z,995.43
2017-12-26T03:31:23.212Z,995.37
2017-12-26T03:32:31.807Z,995.3
2017-12-26T03:33:40.418Z,995.3
2017-12-26T03:34:49.014Z,995.2
2017-12-26T03:35:57.603Z,995.2
2017-12-26T03:37:06.220Z,995.19
2017-12-26T03:38:14.822Z,995.17
2017-12-26T03:39:23.414Z,995.13
2017-12-26T03:40:32.019Z,995.07
2017-12-26T03:41:40.613Z,995.05
2017-12-26T03:42:49.224Z,995.04
2017-12-26T03:43:57.822Z,995.02
2017-12-26T03:45:06.414Z,995.04
2017-12-26T03:46:15.284Z,995.01
2017-12-26T03:47:24.147Z,994.95
2017-12-26T03:48:32.734Z,994.85
2017-12-26T03:49:41.339Z,994.81
2017-12-26T03:50:49.953Z,994.82
2017-12-26T03:51:58.536Z,994.79
2017-12-26T03:53:07.140Z,994.72
2017-12-26T03:54:15.748Z,994.65
2017-12-26T03:55:24.345Z,994.58
2017-12-26T03:56:32.947Z,994.5
2017-12-26T03:57:41.535Z,994.48
2017-12-26T03:58:50.142Z,994.42
2017-12-26T03:59:58.748Z,994.39
2017-12-26T04:01:07.597Z,994.36
2017-12-26T04:02:16.197Z,994.37
2017-12-26T04:03:24.810Z,994.35
2017-12-26T04:04:33.401Z,994.29
2017-12-26T04:05:41.993Z,994.26
2017-12-26T04:06:50.607Z,994.21
2017-12-26T04:07:59.206Z,994.25
2017-12-26T04:09:07.796Z,994.2
2017-12-26T04:10:16.405Z,994.18
2017-12-26T04:11:25.006Z,994.12
2017-12-26T04:12:33.594Z,994.04
2017-12-26T04:13:42.211Z,994.04
2017-12-26T04:14:50.808Z,994.01
2017-12-26T04:15:59.399Z,993.96
2017-12-26T04:17:08.002Z,993.98
2017-12-26T04:18:16.615Z,993.96
2017-12-26T04:19:25.198Z,993.94
2017-12-26T04:20:33.801Z,993.87
2017-12-26T04:21:42.407Z,993.8
2017-12-26T04:22:50.998Z,993.75
2017-12-26T04:23:59.594Z,993.68
2017-12-26T04:25:08.192Z,993.64
2017-12-26T04:26:16.797Z,993.64
2017-12-26T04:27:25.401Z,993.61
2017-12-26T04:28:33.995Z,993.61
2017-12-26T04:29:42.598Z,993.59
2017-12-26T04:30:51.209Z,993.55
2017-12-26T04:31:59.796Z,993.58
2017-12-26T04:33:08.396Z,993.56
2017-12-26T04:34:17.007Z,993.52
2017-12-26T04:35:25.600Z,993.49
2017-12-26T04:36:34.197Z,993.47
2017-12-26T04:37:42.808Z,993.52
2017-12-26T04:38:51.408Z,993.53
2017-12-26T04:40:00.017Z,993.5
2017-12-26T04:41:08.605Z,993.5
2017-12-26T04:42:17.202Z,993.52
2017-12-26T04:43:26.070Z,993.42
2017-12-26T04:44:34.664Z,993.45
2017-12-26T04:45:43.572Z,993.39
2017-12-26T04:46:52.181Z,993.38
2017-12-26T04:48:00.784Z,993.39
2017-12-26T04:49:09.369Z,993.36
2017-12-26T04:50:17.983Z,993.35
2017-12-26T04:51:26.585Z,993.39
2017-12-26T04:52:35.177Z,993.34
2017-12-26T04:53:44.306Z,993.26
2017-12-26T04:54:52.898Z,993.26
2017-12-26T04:56:01.508Z,993.22
2017-12-26T04:57:10.108Z,993.14
2017-12-26T04:58:18.706Z,993.22
2017-12-26T04:59:27.314Z,993.13
2017-12-26T05:00:35.913Z,993.12
2017-12-26T05:01:44.503Z,993.07
2017-12-26T05:02:53.109Z,993.03
2017-12-26T05:04:01.718Z,993.08
2017-12-26T05:05:10.305Z,992.99
2017-12-26T05:06:18.909Z,992.99
2017-12-26T05:07:27.518Z,992.87
2017-12-26T05:08:36.110Z,992.86
2017-12-26T05:09:44.714Z,992.8
2017-12-26T05:10:53.301Z,992.89
2017-12-26T05:12:01.909Z,992.79
2017-12-26T05:13:10.513Z,992.8
2017-12-26T05:14:19.106Z,992.7
2017-12-26T05:15:27.709Z,992.71
2017-12-26T05:16:36.322Z,992.65
2017-12-26T05:17:44.913Z,992.72
2017-12-26T05:18:53.510Z,992.65
2017-12-26T05:20:02.120Z,992.61
2017-12-26T05:21:10.972Z,992.55
2017-12-26T05:22:19.598Z,992.55
2017-12-26T05:23:28.177Z,992.55
2017-12-26T05:24:36.776Z,992.43
2017-12-26T05:25:45.389Z,992.44
2017-12-26T05:26:53.985Z,992.44
2017-12-26T05:28:02.578Z,992.46
2017-12-26T05:29:11.185Z,992.43
2017-12-26T05:30:19.782Z,992.44
2017-12-26T05:31:28.632Z,992.47
2017-12-26T05:32:37.241Z,992.47
2017-12-26T05:33:45.841Z,992.39
2017-12-26T05:34:54.433Z,992.44
2017-12-26T05:36:03.046Z,992.44
2017-12-26T05:37:11.911Z,992.48
2017-12-26T05:38:20.512Z,992.48
2017-12-26T05:39:29.109Z,992.41
2017-12-26T05:40:37.705Z,992.41
2017-12-26T05:41:46.575Z,992.32
2017-12-26T05:42:55.174Z,992.36
2017-12-26T05:44:04.022Z,992.4
2017-12-26T05:45:12.630Z,992.44
2017-12-26T05:46:21.232Z,992.28
2017-12-26T05:47:29.821Z,992.37
2017-12-26T05:48:38.430Z,992.32
2017-12-26T05:49:47.034Z,992.22
2017-12-26T05:50:55.623Z,992.3
2017-12-26T05:52:04.488Z,992.19
2017-12-26T05:53:13.080Z,992.28
2017-12-26T05:54:21.694Z,992.23
2017-12-26T05:55:30.298Z,992.3
2017-12-26T05:56:38.900Z,992.22
2017-12-26T05:57:47.498Z,992.2
2017-12-26T05:58:56.104Z,992.18
2017-12-26T06:00:04.695Z,992.19
2017-12-26T06:01:13.298Z,992.14
2017-12-26T06:02:21.911Z,992.03
2017-12-26T06:03:30.506Z,992
2017-12-26T06:04:39.107Z,991.94
2017-12-26T06:05:47.722Z,991.95
2017-12-26T06:06:56.323Z,991.81
2017-12-26T06:08:04.911Z,991.83
2017-12-26T06:09:13.527Z,991.8
2017-12-26T06:10:22.127Z,991.81
2017-12-26T06:11:30.717Z,991.83
2017-12-26T06:12:39.328Z,991.91
2017-12-26T06:13:47.934Z,991.96
2017-12-26T06:14:56.527Z,992.1
2017-12-26T06:16:05.399Z,992.01
2017-12-26T06:17:14.008Z,992.06
2017-12-26T06:18:22.596Z,992.08
2017-12-26T06:19:31.196Z,992.06
2017-12-26T06:20:40.067Z,992.06
2017-12-26T06:21:48.666Z,991.9
2017-12-26T06:22:57.272Z,991.88
2017-12-26T06:24:05.859Z,991.88
2017-12-26T06:25:14.470Z,991.88
2017-12-26T06:26:23.076Z,991.96
2017-12-26T06:27:31.671Z,991.95
2017-12-26T06:28:40.274Z,991.87
2017-12-26T06:29:48.887Z,991.97
2017-12-26T06:30:57.475Z,992.01
2017-12-26T06:32:06.074Z,991.99
2017-12-26T06:33:14.686Z,992.03
2017-12-26T06:34:23.282Z,992.05
2017-12-26T06:35:31.879Z,992.04
2017-12-26T06:36:40.484Z,992.08
2017-12-26T06:37:49.086Z,992.16
2017-12-26T06:38:57.704Z,992.19
2017-12-26T06:40:06.294Z,992.21
2017-12-26T06:41:14.896Z,992.3
2017-12-26T06:42:23.509Z,992.32
2017-12-26T06:43:32.622Z,992.32
2017-12-26T06:44:41.217Z,992.25
2017-12-26T06:45:49.831Z,992.4
2017-12-26T06:46:58.433Z,992.38
2017-12-26T06:48:07.283Z,992.24
2017-12-26T06:49:15.895Z,992.4
2017-12-26T06:50:24.496Z,992.38
2017-12-26T06:51:33.102Z,992.39
2017-12-26T06:52:41.697Z,992.4
2017-12-26T06:53:50.289Z,992.43
2017-12-26T06:54:58.902Z,992.47
2017-12-26T06:56:07.501Z,992.4
2017-12-26T06:57:16.357Z,992.38
2017-12-26T06:58:24.971Z,992.45
2017-12-26T06:59:33.573Z,992.44
2017-12-26T07:00:42.160Z,992.42
2017-12-26T07:01:50.770Z,992.45
2017-12-26T07:02:59.380Z,992.5
2017-12-26T07:04:07.970Z,992.58
2017-12-26T07:05:16.575Z,992.54
2017-12-26T07:06:25.168Z,992.68
2017-12-26T07:07:33.781Z,992.69
2017-12-26T07:08:42.386Z,992.69
2017-12-26T07:09:50.975Z,992.7
2017-12-26T07:10:59.584Z,992.66
2017-12-26T07:12:08.189Z,992.7
2017-12-26T07:13:16.784Z,992.77
2017-12-26T07:14:25.388Z,992.72
2017-12-26T07:15:34.002Z,992.72
2017-12-26T07:16:42.852Z,992.68
2017-12-26T07:17:51.451Z,992.7
2017-12-26T07:19:00.328Z,992.68
2017-12-26T07:20:08.923Z,992.69
2017-12-26T07:21:17.537Z,992.69
2017-12-26T07:22:26.388Z,992.64
2017-12-26T07:23:34.995Z,992.65
2017-12-26T07:24:43.602Z,992.64
2017-12-26T07:25:52.190Z,992.59
2017-12-26T07:27:00.789Z,992.62
2017-12-26T07:28:09.399Z,992.72
2017-12-26T07:29:17.997Z,992.66
2017-12-26T07:30:26.590Z,992.63
2017-12-26T07:31:35.203Z,992.69
2017-12-26T07:32:43.801Z,992.75
2017-12-26T07:33:52.390Z,992.77
2017-12-26T07:35:00.997Z,992.75
2017-12-26T07:36:09.603Z,992.82
2017-12-26T07:37:18.210Z,992.79
2017-12-26T07:38:26.805Z,992.82
2017-12-26T07:39:35.400Z,992.86
2017-12-26T07:40:44.014Z,992.85
2017-12-26T07:41:52.613Z,992.88
2017-12-26T07:43:01.207Z,992.86
2017-12-26T07:44:09.817Z,992.89
2017-12-26T07:45:18.415Z,992.97
2017-12-26T07:46:27.007Z,993.01
2017-12-26T07:47:35.614Z,992.98
2017-12-26T07:48:44.224Z,992.91
2017-12-26T07:49:52.821Z,992.86
2017-12-26T07:51:01.421Z,992.87
2017-12-26T07:52:10.013Z,992.93
2017-12-26T07:53:18.627Z,992.98
2017-12-26T07:54:27.493Z,992.97
2017-12-26T07:55:36.084Z,992.96
2017-12-26T07:56:44.702Z,992.93
2017-12-26T07:57:53.299Z,992.91
2017-12-26T07:59:01.893Z,992.93
2017-12-26T08:00:10.550Z,992.95
2017-12-26T08:01:19.368Z,992.9
2017-12-26T08:02:27.956Z,992.9
2017-12-26T08:03:36.555Z,992.91
2017-12-26T08:04:45.167Z,992.95
2017-12-26T08:05:53.763Z,992.88
2017-12-26T08:07:02.360Z,992.93
2017-12-26T08:08:10.972Z,992.91
2017-12-26T08:09:19.834Z,992.91
2017-12-26T08:10:28.424Z,992.94
2017-12-26T08:11:37.037Z,992.91
2017-12-26T08:12:45.903Z,992.97
2017-12-26T08:13:54.494Z,992.94
2017-12-26T08:15:03.100Z,993.03
2017-12-26T08:16:11.709Z,993.11
2017-12-26T08:17:20.558Z,993.1
2017-12-26T08:18:29.162Z,993.07
2017-12-26T08:19:37.758Z,993.04
2017-12-26T08:20:46.633Z,993.08
2017-12-26T08:21:55.236Z,993.11
2017-12-26T08:23:04.089Z,993.13
2017-12-26T08:24:12.699Z,993.25
2017-12-26T08:25:21.309Z,993.23
2017-12-26T08:26:29.906Z,993.23
2017-12-26T08:27:38.762Z,993.25
2017-12-26T08:28:47.372Z,993.29
2017-12-26T08:29:55.964Z,993.27
2017-12-26T08:31:04.562Z,993.34
2017-12-26T08:32:13.176Z,993.34
2017-12-26T08:33:21.768Z,993.37
2017-12-26T08:34:30.634Z,993.3
2017-12-26T08:35:39.494Z,993.41
2017-12-26T08:36:48.101Z,993.4
2017-12-26T08:37:56.710Z,993.55
2017-12-26T08:39:05.303Z,993.52
2017-12-26T08:40:13.901Z,993.59
2017-12-26T08:41:22.514Z,993.6
2017-12-26T08:42:31.108Z,993.54
2017-12-26T08:43:39.708Z,993.51
2017-12-26T08:44:48.317Z,993.62
2017-12-26T08:45:56.916Z,993.61
2017-12-26T08:47:05.506Z,993.67
2017-12-26T08:48:14.113Z,993.71
2017-12-26T08:49:22.714Z,993.75
2017-12-26T08:50:31.323Z,993.78
2017-12-26T08:51:39.919Z,993.71
2017-12-26T08:52:48.516Z,993.71
2017-12-26T08:53:57.136Z,993.73
2017-12-26T08:55:05.728Z,993.54
2017-12-26T08:56:14.319Z,993.54
2017-12-26T08:57:22.929Z,993.65
2017-12-26T08:58:31.536Z,993.5
2017-12-26T08:59:40.129Z,993.5
2017-12-26T09:00:48.737Z,993.49
2017-12-26T09:01:57.348Z,993.38
2017-12-26T09:03:05.945Z,993.43
2017-12-26T09:04:14.542Z,993.42
2017-12-26T09:05:23.396Z,993.54
2017-12-26T09:06:32.006Z,993.62
2017-12-26T09:07:40.615Z,993.67
2017-12-26T09:08:49.204Z,993.64
2017-12-26T09:09:57.811Z,993.65
2017-12-26T09:11:06.419Z,993.64
2017-12-26T09:12:15.022Z,993.58
2017-12-26T09:13:23.881Z,993.64
2017-12-26T09:14:32.497Z,993.65
2017-12-26T09:15:41.090Z,993.6
2017-12-26T09:16:49.941Z,993.63
2017-12-26T09:17:58.579Z,993.67
2017-12-26T09:19:07.151Z,993.6
2017-12-26T09:20:15.757Z,993.7
2017-12-26T09:21:24.351Z,993.7
2017-12-26T09:22:32.954Z,993.74
2017-12-26T09:23:41.570Z,993.72
2017-12-26T09:24:50.161Z,993.76
2017-12-26T09:25:58.761Z,993.81
2017-12-26T09:27:07.373Z,993.86
2017-12-26T09:28:15.964Z,993.81
2017-12-26T09:29:24.559Z,993.89
2017-12-26T09:30:33.173Z,993.91
2017-12-26T09:31:41.775Z,993.87
2017-12-26T09:32:50.382Z,993.9
2017-12-26T09:33:58.974Z,993.86
2017-12-26T09:35:07.573Z,993.85
2017-12-26T09:36:16.454Z,993.82
2017-12-26T09:37:25.045Z,993.83
2017-12-26T09:38:33.638Z,993.86
2017-12-26T09:39:42.250Z,993.75
2017-12-26T09:40:50.848Z,993.83
2017-12-26T09:41:59.696Z,993.82
2017-12-26T09:43:08.309Z,993.94
2017-12-26T09:44:16.914Z,993.94
2017-12-26T09:45:25.505Z,993.96
2017-12-26T09:46:34.114Z,993.99
2017-12-26T09:47:42.713Z,994.01
2017-12-26T09:48:51.321Z,994.03
2017-12-26T09:49:59.924Z,994.07
2017-12-26T09:51:08.511Z,994.01
2017-12-26T09:52:17.129Z,994.1
2017-12-26T09:53:25.728Z,994.06
2017-12-26T09:54:34.320Z,994.03
2017-12-26T09:55:43.182Z,994.07
2017-12-26T09:56:51.791Z,994.14
2017-12-26T09:58:00.382Z,994.12
2017-12-26T09:59:08.988Z,994.11
2017-12-26T10:00:17.870Z,994.13
2017-12-26T10:01:26.717Z,994.15
2017-12-26T10:02:35.321Z,994.16
2017-12-26T10:03:43.933Z,994.18
2017-12-26T10:04:52.529Z,994.16
2017-12-26T10:06:01.128Z,994.1
2017-12-26T10:07:10.269Z,994.05
2017-12-26T10:08:18.871Z,993.98
2017-12-26T10:09:27.465Z,994.07
2017-12-26T10:10:36.077Z,994.05
2017-12-26T10:11:44.678Z,994.02
2017-12-26T10:12:53.271Z,994.04
2017-12-26T10:14:01.882Z,994.07
2017-12-26T10:15:10.490Z,994.04
2017-12-26T10:16:19.093Z,993.91
2017-12-26T10:17:27.691Z,994.08
2017-12-26T10:18:36.287Z,994.1
2017-12-26T10:19:44.898Z,993.95
2017-12-26T10:20:53.502Z,994.09
2017-12-26T10:22:02.091Z,994.08
2017-12-26T10:23:10.702Z,994.09
2017-12-26T10:24:19.309Z,994.07
2017-12-26T10:25:27.909Z,994.02
2017-12-26T10:26:36.515Z,993.98
2017-12-26T10:27:45.394Z,993.96
2017-12-26T10:28:53.987Z,993.95
2017-12-26T10:30:02.590Z,993.93
2017-12-26T10:31:11.194Z,993.95
2017-12-26T10:32:19.803Z,993.92
2017-12-26T10:33:28.676Z,993.94
2017-12-26T10:34:37.269Z,993.9
2017-12-26T10:35:45.877Z,993.91
2017-12-26T10:36:54.497Z,993.92
2017-12-26T10:38:03.087Z,993.95
2017-12-26T10:39:11.689Z,993.91
2017-12-26T10:40:20.303Z,993.93
2017-12-26T10:41:28.901Z,993.92
2017-12-26T10:42:37.761Z,993.97
2017-12-26T10:43:46.377Z,993.99
2017-12-26T10:44:55.238Z,994.04
2017-12-26T10:46:03.846Z,994.02
2017-12-26T10:47:12.442Z,993.99
2017-12-26T10:48:21.046Z,993.99
2017-12-26T10:49:29.663Z,994.01
2017-12-26T10:50:38.263Z,993.96
2017-12-26T10:51:47.117Z,994.02
2017-12-26T10:52:55.732Z,994.02
2017-12-26T10:54:04.336Z,994.06
2017-12-26T10:55:12.933Z,993.92
2017-12-26T10:56:21.543Z,994.08
2017-12-26T10:57:30.149Z,994.03
2017-12-26T10:58:38.743Z,994.17
2017-12-26T10:59:47.354Z,994.06
2017-12-26T11:00:55.950Z,994.04
2017-12-26T11:02:04.565Z,994.05
2017-12-26T11:03:13.425Z,993.99
2017-12-26T11:04:22.282Z,994.04
2017-12-26T11:05:30.896Z,994.01
2017-12-26T11:06:39.500Z,993.91
2017-12-26T11:07:48.095Z,994.11
2017-12-26T11:08:56.707Z,994.03
2017-12-26T11:10:05.319Z,994.06
2017-12-26T11:11:13.910Z,993.9
2017-12-26T11:12:22.804Z,994.14
2017-12-26T11:13:31.393Z,994.19
2017-12-26T11:14:39.994Z,994.18
2017-12-26T11:15:48.601Z,994.12
2017-12-26T11:16:57.197Z,994.12
2017-12-26T11:18:05.805Z,994.18
2017-12-26T11:19:14.681Z,994.2
2017-12-26T11:20:23.534Z,994.16
2017-12-26T11:21:32.142Z,994.16
2017-12-26T11:22:40.761Z,994.13
2017-12-26T11:23:49.353Z,994.11
2017-12-26T11:24:57.957Z,994.1
2017-12-26T11:26:06.575Z,994.13
2017-12-26T11:27:15.169Z,994.18
2017-12-26T11:28:23.773Z,994.17
2017-12-26T11:29:32.375Z,994.2
2017-12-26T11:30:40.982Z,994.15
2017-12-26T11:31:49.597Z,994.19
2017-12-26T11:32:58.193Z,994.13
2017-12-26T11:34:06.796Z,994.24
2017-12-26T11:35:15.410Z,994.17
2017-12-26T11:36:24.008Z,994.21
2017-12-26T11:37:32.606Z,994.08
2017-12-26T11:38:41.229Z,994.05
2017-12-26T11:39:49.830Z,994.11
2017-12-26T11:40:58.424Z,994.11
2017-12-26T11:42:07.037Z,994.03
2017-12-26T11:43:15.645Z,994.04
2017-12-26T11:44:24.253Z,994.08
2017-12-26T11:45:32.849Z,994.03
2017-12-26T11:46:41.449Z,994.11
2017-12-26T11:47:50.064Z,994.04
2017-12-26T11:48:58.667Z,994.13
2017-12-26T11:50:07.274Z,994.09
2017-12-26T11:51:15.879Z,994.05
2017-12-26T11:52:24.483Z,994.06
2017-12-26T11:53:33.334Z,994.12
2017-12-26T11:54:41.952Z,994.13
2017-12-26T11:55:50.559Z,994.17
2017-12-26T11:56:59.156Z,994.14
2017-12-26T11:58:07.766Z,994.22
2017-12-26T11:59:16.374Z,994.23
2017-12-26T12:00:24.967Z,994.22
2017-12-26T12:01:33.569Z,994.21
2017-12-26T12:02:42.186Z,994.21
2017-12-26T12:03:51.053Z,994.21
2017-12-26T12:04:59.653Z,994.17
2017-12-26T12:06:08.267Z,994.2
2017-12-26T12:07:16.872Z,994.17
2017-12-26T12:08:25.463Z,994.18
2017-12-26T12:09:34.082Z,994.26
2017-12-26T12:10:42.684Z,994.26
2017-12-26T12:11:51.281Z,994.27
2017-12-26T12:12:59.892Z,994.26
2017-12-26T12:14:08.491Z,994.39
2017-12-26T12:15:17.108Z,994.28
2017-12-26T12:16:25.711Z,994.36
2017-12-26T12:17:34.307Z,994.39
2017-12-26T12:18:43.187Z,994.35
2017-12-26T12:19:51.794Z,994.39
2017-12-26T12:21:00.390Z,994.34
2017-12-26T12:22:09.004Z,994.24
2017-12-26T12:23:17.618Z,994.21
2017-12-26T12:24:26.210Z,994.23
2017-12-26T12:25:34.817Z,994.28
2017-12-26T12:26:43.428Z,994.15
2017-12-26T12:27:52.028Z,994.25
2017-12-26T12:29:00.635Z,994.24
2017-12-26T12:30:09.230Z,994.31
2017-12-26T12:31:17.891Z,994.26
2017-12-26T12:32:26.456Z,994.33
2017-12-26T12:33:35.052Z,994.33
2017-12-26T12:34:43.660Z,994.3
2017-12-26T12:35:52.277Z,994.29
2017-12-26T12:37:01.131Z,994.35
2017-12-26T12:38:09.731Z,994.32
2017-12-26T12:39:18.344Z,994.31
2017-12-26T12:40:26.946Z,994.27
2017-12-26T12:41:35.549Z,994.35
2017-12-26T12:42:44.151Z,994.28
2017-12-26T12:43:52.760Z,994.25
2017-12-26T12:45:01.377Z,994.31
2017-12-26T12:46:09.967Z,994.28
2017-12-26T12:47:18.831Z,994.24
2017-12-26T12:48:27.446Z,994.26
2017-12-26T12:49:36.358Z,994.17
2017-12-26T12:50:44.956Z,994.24
2017-12-26T12:51:53.574Z,994.23
2017-12-26T12:53:02.175Z,994.24
2017-12-26T12:54:10.775Z,994.25
2017-12-26T12:55:19.389Z,994.35
2017-12-26T12:56:27.998Z,994.23
2017-12-26T12:57:36.602Z,994.14
2017-12-26T12:58:45.201Z,994.21
2017-12-26T12:59:53.799Z,994.19
2017-12-26T13:01:02.415Z,994.1
2017-12-26T13:02:11.017Z,994.21
2017-12-26T13:03:19.615Z,994.27
2017-12-26T13:04:28.227Z,994.19
2017-12-26T13:05:36.837Z,994.18
2017-12-26T13:06:45.690Z,994.13
2017-12-26T13:07:54.300Z,994.18
2017-12-26T13:09:02.915Z,994.15
2017-12-26T13:10:11.511Z,994.12
2017-12-26T13:11:20.118Z,994.11
2017-12-26T13:12:28.712Z,994.1
2017-12-26T13:13:37.331Z,994.2
2017-12-26T13:14:45.941Z,994.14
2017-12-26T13:15:54.534Z,994.16
2017-12-26T13:17:03.147Z,994.14
2017-12-26T13:18:11.756Z,994.14
2017-12-26T13:19:20.362Z,994.2
2017-12-26T13:20:28.999Z,994.19
2017-12-26T13:21:37.583Z,994.18
2017-12-26T13:22:46.434Z,994.19
2017-12-26T13:23:55.041Z,994.21
2017-12-26T13:25:03.927Z,994.16
2017-12-26T13:26:12.525Z,994.19
2017-12-26T13:27:21.137Z,994.13
2017-12-26T13:28:29.728Z,994.2
2017-12-26T13:29:38.337Z,994.2
2017-12-26T13:30:46.950Z,994.14
2017-12-26T13:31:55.547Z,994.1
2017-12-26T13:33:04.152Z,994.11
2017-12-26T13:34:12.766Z,994.09
2017-12-26T13:35:21.362Z,994.04
2017-12-26T13:36:29.959Z,994.15
2017-12-26T13:37:38.578Z,994.06
2017-12-26T13:38:47.180Z,994.1
2017-12-26T13:39:55.772Z,994.09
2017-12-26T13:41:04.662Z,994.17
2017-12-26T13:42:13.277Z,994.04
2017-12-26T13:43:21.885Z,994.07
2017-12-26T13:44:30.483Z,994.08
2017-12-26T13:45:39.080Z,994.05
2017-12-26T13:46:47.688Z,994.07
2017-12-26T13:47:56.289Z,994.08
2017-12-26T13:49:04.884Z,994.06
2017-12-26T13:50:13.498Z,994.04
2017-12-26T13:51:22.363Z,994
2017-12-26T13:52:30.954Z,993.98
2017-12-26T13:53:39.567Z,994.02
2017-12-26T13:54:48.180Z,993.95
2017-12-26T13:55:56.772Z,994.08
2017-12-26T13:57:05.378Z,994.09
2017-12-26T13:58:14.257Z,994.07
2017-12-26T13:59:22.848Z,994.09
2017-12-26T14:00:31.450Z,994.09
2017-12-26T14:01:40.057Z,994.08
2017-12-26T14:02:48.653Z,994.05
2017-12-26T14:03:57.250Z,994.07
2017-12-26T14:05:06.128Z,994.05
2017-12-26T14:06:14.726Z,994.17
2017-12-26T14:07:23.321Z,994.17
2017-12-26T14:08:32.451Z,994.16
2017-12-26T14:09:41.060Z,994.15
2017-12-26T14:10:49.664Z,994.13
2017-12-26T14:11:58.259Z,994.13
2017-12-26T14:13:06.852Z,994.12
2017-12-26T14:14:15.736Z,994.15
2017-12-26T14:15:24.601Z,994.15
2017-12-26T14:16:33.194Z,994.15
2017-12-26T14:17:41.803Z,994.17
2017-12-26T14:18:50.415Z,994.15